• Join FlightAware (Why Join?)
  • Login
  • US Flag 
Rudolph Flight #1: Arrived! 
08:54AM EST


 

Airport Tracker/Info


-or-


 

Live Flight TrackerFlight Track Log ✈ SWA286 ✈ 25-Jul-2014 ✈ KPHX - KMCI

Flight Track Log - Related Links

Times and Time Zones

All times are in EDT time to prevent confusion due to time zone crossing. See the SWA286 flight status page for this flight to view local times or setup timezone preferences in your user account.

Time Position Orientation Groundspeed Altitude Reporting Facility
EDT Latitude Longitude Course Direction KTS MPH feet Rate Location/Type
08:13PM 33.4375 -112.1258 272° West 205 236 4,700  Level Albuquerque Center
08:14PM 33.5000 -112.1167 North 245 282 7,400 2,460 Climbing Phoenix TRACON
08:15PM 33.5500 -112.0333 54° Northeast 291 335 9,500 1,980 Climbing Phoenix TRACON
08:16PM 33.6000 -111.9667 48° Northeast 337 388 11,200 2,400 Climbing Phoenix TRACON
08:17PM 33.6167 -111.8278 82° East 351 404 14,800 2,760 Climbing Albuquerque Center
08:18PM 33.6392 -111.7114 77° East 362 417 17,600 2,520 Climbing Albuquerque Center
08:19PM 33.6778 -111.5942 68° East 377 434 20,000 2,520 Climbing Albuquerque Center
08:20PM 33.7247 -111.4464 69° East 396 456 22,800 2,160 Climbing Albuquerque Center
08:21PM 33.7650 -111.3175 69° East 412 474 24,500 1,620 Climbing Albuquerque Center
08:22PM 33.8078 -111.1833 69° East 429 494 26,200 1,500 Climbing Albuquerque Center
08:23PM 33.8503 -111.0450 70° East 442 509 27,600 1,320 Climbing Albuquerque Center
08:24PM 33.8950 -110.9017 69° East 454 522 29,000 1,200 Climbing Albuquerque Center
08:25PM 33.9400 -110.7561 70° East 461 531 30,200 1,500 Climbing Albuquerque Center
08:26PM 33.9911 -110.5772 71° East 470 541 32,200 1,740 Climbing Albuquerque Center
08:27PM 34.0056 -110.4317 83° East 466 536 33,800 1,440 Climbing Albuquerque Center
08:28PM 34.0217 -110.2792 83° East 459 528 35,200 1,320 Climbing Albuquerque Center
08:29PM 34.0381 -110.1278 83° East 459 528 36,600 1,200 Climbing Albuquerque Center
08:30PM 34.0547 -109.9622 83° East 455 524 37,700 1,020 Climbing Albuquerque Center
08:31PM 34.0731 -109.7911 83° East 457 526 38,800 600 Climbing Albuquerque Center
08:32PM 34.0867 -109.6456 84° East 460 529 39,000 60 Climbing Albuquerque Center
08:33PM 34.1036 -109.4794 83° East 454 522 39,000  Level Albuquerque Center
08:34PM 34.1172 -109.3439 83° East 452 520 39,000  Level Albuquerque Center
08:35PM 34.1325 -109.1956 83° East 452 520 39,000  Level Albuquerque Center
08:36PM 34.1508 -109.0292 82° East 449 517 39,000  Level Albuquerque Center
08:37PM 34.2019 -108.9003 64° Northeast 448 516 39,000  Level Albuquerque Center
08:39PM 34.2625 -108.7469 64° Northeast 448 516 39,000  Level Albuquerque Center
08:40PM 34.3147 -108.6214 63° Northeast 448 516 39,000  Level Albuquerque Center
08:41PM 34.3750 -108.4703 64° Northeast 448 516 39,000  Level Albuquerque Center
08:42PM 34.4211 -108.3550 64° Northeast 444 511 39,000  Level Albuquerque Center
08:43PM 34.4861 -108.1883 65° Northeast 446 513 39,000  Level Albuquerque Center
08:44PM 34.5400 -108.0544 64° Northeast 453 521 39,000  Level Albuquerque Center
08:45PM 34.5942 -107.9192 64° Northeast 450 518 39,000  Level Albuquerque Center
08:46PM 34.6475 -107.7808 65° Northeast 450 518 39,000  Level Albuquerque Center
08:47PM 34.7014 -107.6458 64° Northeast 450 518 39,000  Level Albuquerque Center
08:48PM 34.7606 -107.4917 65° Northeast 450 518 39,000  Level Albuquerque Center
08:49PM 34.8181 -107.3442 65° Northeast 449 517 39,000  Level Albuquerque Center
08:50PM 34.8706 -107.2078 65° Northeast 449 517 39,000  Level Albuquerque Center
08:51PM 34.9228 -107.0719 65° Northeast 447 514 39,000  Level Albuquerque Center
08:52PM 34.9783 -106.9253 65° Northeast 446 513 39,000  Level Albuquerque Center
08:53PM 35.0317 -106.7842 65° Northeast 445 512 39,000  Level Albuquerque Center
08:54PM 35.0839 -106.6478 65° Northeast 445 512 39,000  Level Albuquerque Center
08:55PM 35.1358 -106.5108 65° Northeast 451 519 39,000  Level Albuquerque Center
08:56PM 35.1861 -106.3744 66° East 446 513 39,000  Level Albuquerque Center
08:57PM 35.2367 -106.2369 66° East 446 513 39,000  Level Albuquerque Center
08:58PM 35.2872 -106.0992 66° East 446 513 39,000  Level Albuquerque Center
08:59PM 35.3481 -105.9347 66° East 446 513 39,000  Level Albuquerque Center
09:00PM 35.3981 -105.7975 66° East 446 513 39,000  Level Albuquerque Center
09:01PM 35.4489 -105.6603 66° East 446 513 39,000  Level Albuquerque Center
09:02PM 35.5047 -105.5100 65° Northeast 446 513 39,000  Level Albuquerque Center
09:03PM 35.5561 -105.3700 66° East 445 512 39,000  Level Albuquerque Center
09:04PM 35.6083 -105.2306 65° Northeast 445 512 39,000  Level Albuquerque Center
09:05PM 35.6589 -105.0900 66° East 445 512 39,000  Level Albuquerque Center
09:06PM 35.7089 -104.9481 67° East 445 512 39,000  Level Albuquerque Center
09:07PM 35.7594 -104.8086 66° East 445 512 39,000  Level Albuquerque Center
09:08PM 35.8094 -104.6669 66° East 445 512 39,000  Level Albuquerque Center
09:09PM 35.8597 -104.5250 66° East 444 511 39,000  Level Albuquerque Center
09:10PM 35.9178 -104.3622 66° East 439 505 39,000  Level Albuquerque Center
09:11PM 35.9678 -104.2203 66° East 441 507 39,000  Level Albuquerque Center
09:12PM 36.0178 -104.0794 66° East 441 507 39,000  Level Albuquerque Center
09:14PM 36.0661 -103.9394 67° East 441 507 39,000  Level Albuquerque Center
09:15PM 36.1147 -103.7975 67° East 441 507 39,000  Level Albuquerque Center
09:16PM 36.1633 -103.6564 67° East 441 507 39,000  Level Albuquerque Center
09:17PM 36.2125 -103.5144 67° East 441 507 39,000  Level Albuquerque Center
09:18PM 36.2603 -103.3711 68° East 442 509 39,000  Level Albuquerque Center
09:19PM 36.3100 -103.2292 66° East 443 510 39,000  Level Albuquerque Center
09:20PM 36.3567 -103.0850 68° East 444 511 39,000  Level Albuquerque Center
09:21PM 36.4058 -102.9419 67° East 444 511 39,000  Level Albuquerque Center
09:22PM 36.4550 -102.7928 68° East 447 514 39,000  Level Albuquerque Center
09:23PM 36.5022 -102.6489 68° East 447 514 39,000  Level Albuquerque Center
09:24PM 36.5500 -102.5050 68° East 447 514 39,000  Level Albuquerque Center
09:25PM 36.6075 -102.3331 67° East 448 516 39,000  Level Albuquerque Center
09:26PM 36.6497 -102.2031 68° East 448 516 39,000  Level Albuquerque Center
09:27PM 36.7025 -102.0433 68° East 448 516 39,000  Level Albuquerque Center
09:28PM 36.7458 -101.9058 68° East 448 516 39,000  Level Albuquerque Center
09:29PM 36.7983 -101.7467 68° East 447 514 39,000  Level Albuquerque Center
09:30PM 36.8425 -101.6083 68° East 447 514 39,000  Level Albuquerque Center
09:31PM 36.8942 -101.4464 68° East 448 516 39,000  Level Albuquerque Center
09:32PM 36.9386 -101.3064 68° East 450 518 39,000  Level Albuquerque Center
09:33PM 36.9819 -101.1644 69° East 453 521 39,000  Level Albuquerque Center
09:34PM 37.0322 -101.0022 69° East 454 522 39,000  Level Albuquerque Center
09:35PM 37.0842 -100.7881 73° East 452 520 39,000  Level Kansas City Center
09:37PM 37.1161 -100.6444 74° East 452 520 39,000  Level Kansas City Center
09:38PM 37.1528 -100.4775 75° East 452 520 39,000  Level Kansas City Center
09:39PM 37.1847 -100.3325 75° East 452 520 39,000  Level Kansas City Center
09:40PM 37.2214 -100.1633 75° East 452 520 39,000  Level Kansas City Center
09:41PM 37.2519 -100.0178 75° East 452 520 39,000  Level Kansas City Center
09:42PM 37.2886 -99.8492 75° East 452 520 39,000  Level Kansas City Center
09:43PM 37.3192 -99.7033 75° East 452 520 39,000  Level Kansas City Center
09:44PM 37.3500 -99.5583 75° East 452 520 39,000  Level Kansas City Center
09:45PM 37.3853 -99.3972 75° East 453 521 39,000  Level Kansas City Center
09:46PM 37.4181 -99.2425 75° East 455 524 39,000  Level Kansas City Center
09:47PM 37.4483 -99.0892 76° East 455 524 39,000  Level Kansas City Center
09:48PM 37.4858 -98.9006 76° East 462 532 39,000  Level Kansas City Center
09:49PM 37.5175 -98.7461 75° East 461 531 39,000  Level Kansas City Center
09:50PM 37.5486 -98.5900 76° East 461 531 39,000  Level Kansas City Center
09:51PM 37.5789 -98.4361 76° East 460 529 39,000  Level Kansas City Center
09:52PM 37.6100 -98.2800 76° East 460 529 39,000  Level Kansas City Center
09:53PM 37.6411 -98.1233 76° East 460 529 39,000  Level Kansas City Center
09:54PM 37.6761 -97.9353 77° East 460 529 39,000  Level Kansas City Center
09:55PM 37.7053 -97.7769 77° East 460 529 39,000  Level Kansas City Center
09:56PM 37.7350 -97.6183 77° East 461 531 39,000  Level Kansas City Center
09:57PM 37.7858 -97.4731 66° East 455 524 39,000  Level Kansas City Center
09:58PM 37.8367 -97.3431 64° Northeast 455 524 39,000  Level Kansas City Center
09:59PM 37.9028 -97.1708 64° Northeast 455 524 39,000  Level Kansas City Center
10:00PM 37.9578 -97.0289 64° Northeast 455 524 39,000  Level Kansas City Center
10:01PM 38.0122 -96.8850 64° Northeast 455 524 39,000  Level Kansas City Center
10:02PM 38.0658 -96.7414 65° Northeast 453 521 39,000 -120 Level Kansas City Center
10:03PM 38.1208 -96.5967 64° Northeast 454 522 38,800 -1,320 Descending Kansas City Center
10:04PM 38.1753 -96.4525 64° Northeast 454 522 36,400 -1,920 Descending Kansas City Center
10:05PM 38.2328 -96.2956 65° Northeast 451 519 35,000 -720 Descending Kansas City Center
10:06PM 38.2864 -96.1519 65° Northeast 452 520 35,000 -1,620 Level Kansas City Center
10:07PM 38.3628 -96.0386 49° Northeast 424 488 31,600 -3,180 Descending Kansas City Center
10:08PM 38.4481 -95.9214 47° Northeast 449 517 28,600 -2,940 Descending Kansas City Center
10:09PM 38.5317 -95.7975 49° Northeast 458 527 25,700 -2,820 Descending Kansas City Center
10:10PM 38.6322 -95.6639 46° Northeast 442 509 22,900 -2,520 Descending Kansas City Center
10:11PM 38.7106 -95.5544 47° Northeast 427 491 20,600 -2,160 Descending Kansas City Center
10:13PM 38.7861 -95.4469 48° Northeast 412 474 18,500 -2,100 Descending Kansas City Center
10:14PM 38.8575 -95.3469 47° Northeast 387 445 16,300 -2,040 Descending Kansas City Center
10:16PM 39.0167 -95.1167 48° Northeast 361 415 12,000 -1,500 Descending Kansas City TRACON
10:17PM 39.0833 -95.0333 44° Northeast 316 364 11,500 -960 Descending Kansas City TRACON
10:18PM 39.1333 -94.9500 52° Northeast 297 342 10,100 -1,440 Descending Kansas City TRACON
10:19PM 39.1797 -94.8883 46° Northeast 301 346 8,800 -1,620 Descending Kansas City Center
10:20PM 39.2506 -94.8436 26° Northeast 291 335 7,100 -900 Descending Kansas City Center
10:21PM 39.3169 -94.8103 21° North 252 290 7,000 -420 Descending Kansas City Center
10:22PM 39.3714 -94.7936 13° North 204 235 6,300 -1,020 Descending Kansas City Center
10:23PM 39.4356 -94.7742 13° North 202 232 5,000 -1,140 Descending Kansas City Center
10:24PM 39.4889 -94.7525 17° North 207 238 4,000 -840 Descending Kansas City Center
10:25PM 39.4944 -94.6739 85° East 223 257 3,300 -540 Descending Kansas City Center
10:26PM 39.4686 -94.6528 148° Southeast 150 173 3,000 -180 Descending Kansas City Center
10:27PM 39.4306 -94.6642 193° South 139 160 3,000 -240 Level Kansas City Center
10:28PM 39.3917 -94.6764 194° South 141 162 2,600 -480 Descending Kansas City Center
10:29PM 39.3558 -94.6867 193° South 133 153 2,000 -600 Descending Kansas City Center
10:30PM 39.3242 -94.6961 193° South 118 136 1,400 -600 Descending Kansas City Center